Time;durP1;ratioP1;P1;durP2;ratioP2;P2;SDS_P1;SDS_P2;PMS_P1;PMS_P2;Temp;Humidity;BMP_temperature;BMP_pressure;BME280_temperature;BME280_humidity;BME280_pressure;Samples;Min_cycle;Max_cycle;Signal;HPM_P1;HPM_P2
2024/01/01 00:00:27;;;;;;;176.90;95.53;;;;;;;11.20;74.30;99657.88;5021540;28;20058;-80
2024/01/01 00:02:53;;;;;;;107.05;54.45;;;;;;;10.63;75.19;99651.34;5021219;28;20050;-81
2024/01/01 00:05:24;;;;;;;87.85;45.38;;;;;;;10.69;75.24;99651.28;5024241;28;20120;-82
2024/01/01 00:07:51;;;;;;;129.30;63.42;;;;;;;11.13;73.53;99644.88;5022904;28;20326;-81
2024/01/01 00:10:26;;;;;;;167.80;84.85;;;;;;;10.79;76.01;99650.38;5025544;28;20038;-81
2024/01/01 00:12:51;;;;;;;;;;;;;;;10.89;74.97;99648.56;5025373;28;20046;-79
2024/01/01 00:15:19;;;;;;;97.97;46.40;;;;;;;10.53;74.86;99634.03;5025229;28;19917;-82
2024/01/01 00:17:46;;;;;;;83.63;41.95;;;;;;;10.86;74.26;99640.75;5024227;28;20041;-80
2024/01/01 00:20:20;;;;;;;162.43;92.10;;;;;;;10.84;75.29;99639.91;5023912;28;20061;-80
2024/01/01 00:22:47;;;;;;;;;;;;;;;10.70;75.83;99626.97;5027548;28;20041;-79
2024/01/01 00:25:15;;;;;;;103.35;50.35;;;;;;;11.08;74.58;99636.25;5023649;28;19941;-80
2024/01/01 00:27:40;;;;;;;72.13;35.67;;;;;;;10.85;74.71;99636.44;5024549;28;20053;-79
2024/01/01 00:30:09;;;;;;;79.63;41.63;;;;;;;11.02;74.20;99618.91;5027396;28;20034;-80
2024/01/01 00:32:34;;;;;;;88.20;45.83;;;;;;;10.92;74.13;99635.47;5035921;22;20256;-44
2024/01/01 00:35:00;;;;;;;83.30;41.65;;;;;;;10.86;74.87;99640.75;4993671;28;20030;-47
2024/01/01 00:37:25;;;;;;;114.80;58.17;;;;;;;10.77;75.02;99636.47;4994024;28;20038;-44
2024/01/01 00:39:50;;;;;;;60.25;31.10;;;;;;;10.58;75.22;99640.06;4993238;28;20035;-46
2024/01/01 00:42:16;;;;;;;79.55;40.70;;;;;;;10.75;74.39;99637.34;4993715;28;20030;-47
2024/01/01 00:44:44;;;;;;;53.80;25.88;;;;;;;10.78;74.61;99637.34;4992601;28;20493;-44
2024/01/01 00:47:09;;;;;;;46.67;22.75;;;;;;;10.93;74.94;99637.22;4993648;28;20034;-45
2024/01/01 00:49:35;;;;;;;44.08;21.25;;;;;;;10.94;74.65;99636.34;4992257;28;20046;-44
2024/01/01 00:52:00;;;;;;;53.40;26.23;;;;;;;10.89;75.59;99638.13;4993353;28;20594;-45
2024/01/01 00:54:28;;;;;;;52.33;25.15;;;;;;;11.17;74.85;99643.97;4990456;28;20292;-44
2024/01/01 00:56:54;;;;;;;57.10;27.55;;;;;;;11.00;75.40;99633.69;4992732;28;20034;-47
2024/01/01 00:59:20;;;;;;;55.00;26.65;;;;;;;11.04;75.18;99644.97;4993331;28;20484;-44
2024/01/01 01:01:45;;;;;;;54.53;27.70;;;;;;;11.22;74.31;99630.00;4992949;28;20126;-45
2024/01/01 01:04:10;;;;;;;50.92;24.70;;;;;;;11.12;74.94;99640.53;4993159;28;20066;-45
2024/01/01 01:06:36;;;;;;;46.67;23.30;;;;;;;10.94;75.84;99621.56;4993191;28;20126;-45
2024/01/01 01:09:02;;;;;;;56.67;23.67;;;;;;;10.96;74.96;99634.59;4993156;28;20040;-48
2024/01/01 01:11:27;;;;;;;52.67;23.55;;;;;;;11.03;75.05;99643.25;4993569;28;20030;-44
2024/01/01 01:13:52;;;;;;;39.10;17.60;;;;;;;10.91;75.51;99639.00;4992552;28;20047;-44
2024/01/01 01:16:17;;;;;;;39.45;17.33;;;;;;;11.19;75.02;99644.84;4993622;28;20085;-46
2024/01/01 01:18:43;;;;;;;39.30;18.33;;;;;;;11.25;75.17;99648.25;4992871;28;20089;-47
2024/01/01 01:21:09;;;;;;;33.00;15.88;;;;;;;11.44;74.09;99648.94;5000138;22;20042;-75
2024/01/01 01:23:38;;;;;;;30.40;11.52;;;;;;;11.28;75.01;99652.59;4992031;28;20509;-75
2024/01/01 01:26:04;;;;;;;30.75;12.35;;;;;;;11.26;75.45;99663.03;4991551;28;20444;-75
2024/01/01 01:28:32;;;;;;;28.67;10.07;;;;;;;10.88;76.26;99697.22;4993166;28;20129;-75
2024/01/01 01:31:06;;;;;;;26.35;8.95;;;;;;;11.12;76.12;99672.72;4991031;28;20077;-75
2024/01/01 01:33:32;;;;;;;37.65;15.00;;;;;;;11.28;76.03;99682.13;4992079;28;20057;-75
2024/01/01 01:36:00;;;;;;;34.55;14.32;;;;;;;11.20;76.50;99676.13;4992639;28;20480;-75
2024/01/01 01:38:30;;;;;;;30.65;11.95;;;;;;;11.29;76.56;99691.69;4993026;28;20057;-75
2024/01/01 01:40:58;;;;;;;24.80;9.25;;;;;;;11.32;75.29;99681.25;4992361;28;20066;-75
2024/01/01 01:43:24;;;;;;;30.10;9.80;;;;;;;11.13;75.91;99699.66;4992976;28;20066;-75
2024/01/01 01:45:54;;;;;;;24.95;9.30;;;;;;;10.76;77.35;99693.84;4991969;28;20031;-75
2024/01/01 01:48:20;;;;;;;27.10;9.25;;;;;;;11.10;75.47;99710.97;4992174;28;20503;-75
2024/01/01 01:50:55;;;;;;;24.85;10.00;;;;;;;11.36;75.94;99697.72;4992324;28;20507;-75
2024/01/01 01:53:24;;;;;;;35.38;14.90;;;;;;;11.39;75.17;99697.72;4991411;28;20046;-75
2024/01/01 01:55:52;;;;;;;53.85;26.40;;;;;;;10.98;76.38;99711.06;4991814;28;20077;-75
2024/01/01 01:58:17;;;;;;;34.72;14.80;;;;;;;11.05;77.01;99697.09;4991027;28;20038;-75
2024/01/01 02:00:45;;;;;;;25.63;8.27;;;;;;;10.94;77.41;99706.75;4992047;28;20041;-75
2024/01/01 02:03:11;;;;;;;23.10;9.38;;;;;;;11.25;75.71;99717.81;4992831;28;20487;-75
2024/01/01 02:05:37;;;;;;;25.33;9.10;;;;;;;11.33;75.52;99705.59;4992458;28;20045;-76
2024/01/01 02:08:09;;;;;;;23.95;9.00;;;;;;;11.17;76.15;99712.66;4992695;28;20113;-75
2024/01/01 02:10:37;;;;;;;21.50;8.68;;;;;;;10.81;78.20;99702.47;4990795;28;20517;-75
2024/01/01 02:13:19;;;;;;;27.50;8.13;;;;;;;10.71;78.54;99706.03;4990308;28;20038;-75
2024/01/01 02:15:47;;;;;;;17.23;5.90;;;;;;;10.30;79.02;99704.50;4990514;28;20042;-75
2024/01/01 02:18:12;;;;;;;19.05;6.35;;;;;;;10.74;77.79;99704.25;4991416;28;20092;-75
2024/01/01 02:20:37;;;;;;;26.30;6.28;;;;;;;11.11;76.48;99704.88;4992968;28;20038;-76
2024/01/01 02:23:06;;;;;;;19.27;6.03;;;;;;;11.37;75.59;99708.16;4995894;28;20041;-76
2024/01/01 02:25:34;;;;;;;18.02;6.22;;;;;;;10.64;77.47;99700.00;4997453;28;20072;-74
2024/01/01 02:28:08;;;;;;;26.15;6.13;;;;;;;10.97;77.06;99705.00;4995152;28;20101;-76
2024/01/01 02:30:43;;;;;;;19.77;5.68;;;;;;;11.10;76.62;99700.53;4992304;28;20093;-75
2024/01/01 02:33:09;;;;;;;;;;;;;;;11.40;75.53;99694.22;4990577;28;20568;-75
2024/01/01 02:35:43;;;;;;;15.88;5.03;;;;;;;11.27;75.08;99701.28;4992168;28;19992;-75
2024/01/01 02:38:09;;;;;;;21.17;5.32;;;;;;;11.20;75.43;99702.22;4991978;28;20125;-75
2024/01/01 02:40:49;;;;;;;22.83;5.10;;;;;;;11.08;77.04;99702.31;4990377;28;20146;-75
2024/01/01 02:43:18;;;;;;;22.80;4.70;;;;;;;11.50;75.80;99705.44;4991677;28;20054;-75
2024/01/01 02:45:43;;;;;;;15.95;4.38;;;;;;;11.47;75.26;99703.72;4991334;28;20031;-76
2024/01/01 02:48:08;;;;;;;20.83;4.47;;;;;;;11.42;75.56;99713.34;4990602;28;20085;-75
2024/01/01 02:50:40;;;;;;;18.80;4.60;;;;;;;11.04;77.00;99716.22;4992086;28;20513;-74
2024/01/01 02:53:08;;;;;;;18.45;4.38;;;;;;;11.45;75.86;99704.63;4993296;28;20042;-75
2024/01/01 02:55:37;;;;;;;20.77;4.65;;;;;;;11.60;75.59;99713.16;4992051;28;20034;-75
2024/01/01 02:58:11;;;;;;;18.40;4.40;;;;;;;11.53;75.50;99711.47;4989697;28;20041;-75
2024/01/01 03:00:46;;;;;;;19.98;4.93;;;;;;;11.73;75.24;99716.53;4989628;28;20038;-76
2024/01/01 03:03:12;;;;;;;22.73;5.25;;;;;;;11.03;77.23;99709.31;4991768;28;20041;-75
2024/01/01 03:05:41;;;;;;;21.15;5.50;;;;;;;11.40;76.92;99705.50;4990888;28;20418;-76
2024/01/01 03:08:07;;;;;;;30.95;6.00;;;;;;;11.07;77.94;99711.00;4991409;28;20089;-75
2024/01/01 03:10:36;;;;;;;27.17;5.53;;;;;;;11.38;77.04;99714.25;4991028;28;20049;-75
2024/01/01 03:13:01;;;;;;;26.80;5.70;;;;;;;11.15;77.98;99714.44;4990747;28;20034;-75
2024/01/01 03:15:32;;;;;;;29.65;5.65;;;;;;;11.61;76.42;99720.13;4991058;28;20093;-75
2024/01/01 03:18:02;;;;;;;19.67;4.50;;;;;;;11.55;76.30;99727.13;4989428;28;20412;-75
2024/01/01 03:20:31;;;;;;;20.30;4.22;;;;;;;11.24;77.50;99724.78;4990849;28;20042;-76
2024/01/01 03:22:56;;;;;;;19.75;3.67;;;;;;;11.43;76.81;99727.25;4989417;28;20129;-75
2024/01/01 03:25:22;;;;;;;24.13;3.88;;;;;;;11.51;76.88;99733.28;4989892;28;20096;-75
2024/01/01 03:27:50;;;;;;;21.60;3.88;;;;;;;11.35;77.10;99733.38;4989182;28;20058;-75
2024/01/01 03:30:16;;;;;;;19.20;4.05;;;;;;;10.77;78.48;99734.66;4989923;28;20046;-75
2024/01/01 03:32:50;;;;;;;23.88;4.30;;;;;;;11.35;77.39;99738.59;4990633;28;20034;-75
2024/01/01 03:35:16;;;;;;;20.83;4.15;;;;;;;11.45;76.60;99739.41;4990903;28;20049;-75
2024/01/01 03:37:44;;;;;;;25.40;4.75;;;;;;;11.56;76.25;99752.38;4989889;28;20043;-75
2024/01/01 03:40:10;;;;;;;21.50;3.88;;;;;;;11.32;77.24;99743.00;4990840;28;20076;-75
2024/01/01 03:42:38;;;;;;;26.83;4.47;;;;;;;11.59;76.34;99753.19;4990806;28;20034;-75
2024/01/01 03:45:08;;;;;;;24.27;4.45;;;;;;;11.31;77.22;99762.13;4990322;28;20034;-75
2024/01/01 03:47:36;;;;;;;23.30;4.53;;;;;;;11.52;77.57;99769.81;4989450;28;20046;-75
2024/01/01 03:50:02;;;;;;;22.13;4.18;;;;;;;11.60;76.86;99751.44;4990446;28;20061;-75
2024/01/01 03:52:30;;;;;;;22.30;3.80;;;;;;;11.54;77.64;99765.44;4989151;28;20484;-75
2024/01/01 03:54:57;;;;;;;20.98;4.32;;;;;;;11.51;77.75;99764.59;4988681;28;20042;-75
2024/01/01 03:57:23;;;;;;;20.98;4.32;;;;;;;11.34;78.72;99765.56;4990652;28;20034;-75
2024/01/01 03:59:48;;;;;;;24.55;5.15;;;;;;;11.45;77.99;99767.25;4990255;28;20030;-75
2024/01/01 04:02:16;;;;;;;22.33;4.82;;;;;;;11.37;77.86;99772.53;4992902;28;20042;-75
2024/01/01 04:04:44;;;;;;;21.20;4.60;;;;;;;11.70;77.03;99769.66;4992733;28;20038;-76
2024/01/01 04:07:10;;;;;;;23.80;4.38;;;;;;;11.63;77.02;99767.97;4993265;28;20049;-75
2024/01/01 04:09:36;;;;;;;25.27;4.07;;;;;;;11.86;76.81;99767.78;4993437;28;20034;-75
2024/01/01 04:12:01;;;;;;;25.42;4.13;;;;;;;11.51;77.39;99775.03;4993092;28;20391;-75
2024/01/01 04:14:36;;;;;;;22.45;3.70;;;;;;;12.05;75.86;99776.31;4992950;28;20081;-75
2024/01/01 04:17:04;;;;;;;24.98;3.47;;;;;;;11.68;77.01;99779.25;4994233;28;20050;-75
2024/01/01 04:19:33;;;;;;;22.85;3.75;;;;;;;11.79;77.14;99781.78;4993113;28;20088;-75
2024/01/01 04:21:58;;;;;;;24.67;4.10;;;;;;;11.70;76.48;99781.84;4994129;28;20042;-75
2024/01/01 04:24:23;;;;;;;23.95;4.35;;;;;;;11.76;76.73;99784.44;4994157;28;20038;-75
2024/01/01 04:26:52;;;;;;;29.08;4.35;;;;;;;11.59;76.78;99789.75;4993839;28;20104;-75
2024/01/01 04:29:17;;;;;;;21.17;4.88;;;;;;;11.91;76.52;99786.03;4992907;28;20038;-75
2024/01/01 04:31:44;;;;;;;19.77;4.45;;;;;;;11.96;75.62;99790.31;4993886;28;20089;-75
2024/01/01 04:34:09;;;;;;;20.40;3.92;;;;;;;12.13;75.14;99782.34;4993914;28;20046;-75
2024/01/01 04:36:34;;;;;;;23.17;3.85;;;;;;;12.24;74.76;99790.06;4994038;28;20035;-75
2024/01/01 04:39:03;;;;;;;23.40;3.63;;;;;;;12.19;74.91;99793.59;4993308;28;20054;-75
2024/01/01 04:41:29;;;;;;;17.85;3.10;;;;;;;11.42;77.16;99802.06;4992975;28;20092;-75
2024/01/01 04:43:54;;;;;;;25.05;3.05;;;;;;;11.76;76.08;99813.16;4993579;28;20042;-75
2024/01/01 04:46:23;;;;;;;22.80;3.35;;;;;;;11.65;77.58;99809.72;4994802;28;20062;-75
2024/01/01 04:48:48;;;;;;;18.52;3.33;;;;;;;12.05;75.60;99813.75;4994576;28;20030;-75
2024/01/01 04:51:22;;;;;;;15.88;2.70;;;;;;;11.69;76.88;99816.66;4994803;28;20065;-75
2024/01/01 04:53:48;;;;;;;20.95;3.10;;;;;;;12.03;75.34;99815.50;4992198;28;20042;-75
2024/01/01 04:56:13;;;;;;;23.02;3.40;;;;;;;11.87;75.59;99829.59;4994018;28;20030;-75
2024/01/01 04:58:39;;;;;;;19.20;3.67;;;;;;;11.61;76.31;99821.94;4991994;28;20034;-76
2024/01/01 05:01:07;;;;;;;21.05;3.20;;;;;;;12.04;75.64;99829.44;4992149;28;20037;-75
2024/01/01 05:03:39;;;;;;;16.80;3.22;;;;;;;11.80;75.38;99835.75;4992455;28;20035;-75
2024/01/01 05:06:04;;;;;;;24.65;3.08;;;;;;;12.09;73.91;99835.47;4991646;28;20034;-75
2024/01/01 05:08:33;;;;;;;16.35;3.15;;;;;;;12.19;73.84;99829.31;4994084;28;20053;-75
2024/01/01 05:11:04;;;;;;;18.40;3.20;;;;;;;11.70;74.66;99834.06;4992963;28;20038;-75
2024/01/01 05:13:30;;;;;;;12.23;2.53;;;;;;;11.81;74.95;99834.88;4993325;28;20038;-75
2024/01/01 05:15:55;;;;;;;14.35;2.60;;;;;;;12.09;73.71;99831.13;4993475;28;20042;-75
2024/01/01 05:18:21;;;;;;;25.02;3.40;;;;;;;12.15;72.85;99832.81;4993619;28;20475;-75
2024/01/01 05:20:46;;;;;;;14.57;2.80;;;;;;;11.82;73.38;99836.59;4991690;28;20050;-75
2024/01/01 05:23:11;;;;;;;24.02;2.85;;;;;;;12.35;71.71;99846.56;4993149;28;20042;-75
2024/01/01 05:25:37;;;;;;;13.23;2.58;;;;;;;12.36;71.26;99847.44;4992964;28;20121;-76
2024/01/01 05:28:05;;;;;;;14.75;2.22;;;;;;;12.31;71.45;99857.94;4991943;28;20038;-75
2024/01/01 05:30:37;;;;;;;16.83;2.95;;;;;;;12.32;70.99;99859.63;4989464;28;20046;-75
2024/01/01 05:33:05;;;;;;;12.30;2.42;;;;;;;12.15;71.15;99854.59;4992690;28;20042;-75
2024/01/01 05:35:31;;;;;;;16.08;2.55;;;;;;;12.15;69.88;99853.72;4993177;28;20035;-75
2024/01/01 05:37:56;;;;;;;16.38;2.83;;;;;;;12.49;69.23;99855.13;4990287;28;20053;-75
2024/01/01 05:40:31;;;;;;;20.73;2.80;;;;;;;12.50;68.65;99861.22;4992035;28;20038;-75
2024/01/01 05:42:59;;;;;;;12.80;2.63;;;;;;;12.35;68.84;99863.97;4991637;28;20473;-75
2024/01/01 05:45:31;;;;;;;14.40;2.53;;;;;;;12.34;68.52;99854.41;4993014;28;20061;-75
2024/01/01 05:47:56;;;;;;;10.35;2.55;;;;;;;12.51;68.28;99862.94;4994279;28;20034;-75
2024/01/01 05:50:22;;;;;;;14.27;2.45;;;;;;;12.45;68.63;99884.78;4993230;28;20035;-76
2024/01/01 05:52:47;;;;;;;15.38;2.40;;;;;;;11.95;70.31;99890.47;4992377;28;20049;-75
2024/01/01 05:55:13;;;;;;;14.55;2.47;;;;;;;12.31;69.32;99873.63;4991389;28;20042;-75
2024/01/01 05:57:38;;;;;;;17.85;3.22;;;;;;;12.19;69.75;99894.63;4992152;28;20105;-76
2024/01/01 06:00:07;;;;;;;14.35;2.58;;;;;;;12.51;69.82;99883.84;4991263;28;20061;-75
2024/01/01 06:02:32;;;;;;;10.45;2.40;;;;;;;12.22;71.15;99897.19;4992669;28;20042;-75
2024/01/01 06:05:07;;;;;;;11.18;2.65;;;;;;;11.65;72.30;99898.47;4990340;28;20042;-75
2024/01/01 06:07:51;;;;;;;13.52;2.67;;;;;;;11.72;72.38;99897.56;4992634;28;20117;-75
2024/01/01 06:10:16;;;;;;;16.17;2.60;;;;;;;11.63;72.43;99908.94;4992250;28;20503;-75
2024/01/01 06:12:41;;;;;;;13.27;2.00;;;;;;;11.66;71.98;99911.53;4991912;28;20117;-76
2024/01/01 06:15:07;;;;;;;13.30;2.70;;;;;;;11.33;72.91;99910.00;4992238;28;20030;-75
2024/01/01 06:17:32;;;;;;;12.32;2.30;;;;;;;11.74;71.61;99921.97;4992459;28;20088;-75
2024/01/01 06:20:07;;;;;;;10.60;2.15;;;;;;;11.46;71.54;99917.75;4991910;28;20034;-75
2024/01/01 06:22:38;;;;;;;7.75;1.80;;;;;;;11.72;71.16;99928.88;4992727;28;20038;-75
2024/01/01 06:25:08;;;;;;;13.00;2.00;;;;;;;11.69;71.14;99928.94;4991130;28;20038;-75
2024/01/01 06:27:37;;;;;;;13.88;2.40;;;;;;;11.75;71.00;99939.38;4992427;28;20549;-75
2024/01/01 06:30:09;;;;;;;11.45;1.90;;;;;;;11.72;69.84;99939.34;4990518;28;20030;-75
2024/01/01 06:32:37;;;;;;;15.20;2.50;;;;;;;11.76;69.12;99947.19;4991945;28;20034;-75
2024/01/01 06:35:05;;;;;;;12.68;2.10;;;;;;;11.59;68.94;99966.38;4990293;28;20026;-75
2024/01/01 06:37:34;;;;;;;9.35;1.60;;;;;;;11.18;69.70;99970.06;4991429;28;20053;-75
2024/01/01 06:40:03;;;;;;;8.50;1.65;;;;;;;11.48;69.25;99953.41;4990654;28;20046;-76
2024/01/01 06:42:28;;;;;;;11.02;2.15;;;;;;;11.45;69.38;99963.88;4992654;28;20411;-75
2024/01/01 06:45:09;;;;;;;14.32;2.00;;;;;;;12.00;68.85;99963.56;4992504;28;20038;-75
2024/01/01 06:47:37;;;;;;;12.02;1.73;;;;;;;11.83;69.33;99974.16;4995189;28;20058;-75
2024/01/01 06:50:09;;;;;;;17.13;2.33;;;;;;;11.96;68.84;99975.78;4993269;28;20121;-74
2024/01/01 06:52:45;;;;;;;14.10;2.25;;;;;;;11.82;69.30;99992.44;4992773;28;20030;-75
2024/01/01 06:55:10;;;;;;;11.48;1.80;;;;;;;11.85;69.03;99974.97;5005898;22;20043;-44
2024/01/01 06:57:36;;;;;;;12.98;1.95;;;;;;;11.74;69.52;99989.84;4991764;28;20554;-46
2024/01/01 07:00:02;;;;;;;11.55;1.90;;;;;;;11.50;70.34;99993.41;4991527;28;20524;-49
2024/01/01 07:02:27;;;;;;;16.38;2.35;;;;;;;11.77;70.01;99989.84;4992411;28;20224;-48
2024/01/01 07:04:53;;;;;;;15.63;2.03;;;;;;;11.95;68.31;100000.19;4992590;28;20386;-44
2024/01/01 07:07:18;;;;;;;12.93;1.88;;;;;;;11.67;69.13;100011.59;4991903;28;20062;-45
2024/01/01 07:12:20;;;;;;;14.70;2.05;;;;;;;12.00;67.52;100023.66;4989310;28;20073;-44
2024/01/01 07:14:49;;;;;;;16.25;2.75;;;;;;;12.02;67.25;100024.50;4990257;28;20038;-45
2024/01/01 07:17:16;;;;;;;13.15;2.13;;;;;;;11.86;67.11;100030.69;4991047;28;20057;-44
2024/01/01 07:19:42;;;;;;;12.70;1.70;;;;;;;12.02;66.92;100032.34;4990273;28;20034;-46
2024/01/01 07:22:08;;;;;;;9.88;1.92;;;;;;;12.09;66.05;100036.66;4990864;28;20105;-44
2024/01/01 07:24:33;;;;;;;10.02;1.70;;;;;;;11.89;66.46;100057.69;4990328;28;20129;-44
2024/01/01 07:26:58;;;;;;;10.95;1.77;;;;;;;11.90;65.91;100048.94;4990355;28;20453;-44
2024/01/01 07:29:24;;;;;;;11.23;2.15;;;;;;;12.18;65.13;100055.78;4990666;28;20412;-45
2024/01/01 07:31:49;;;;;;;11.25;1.80;;;;;;;11.98;65.37;100061.97;4990043;28;20062;-43
2024/01/01 07:34:19;;;;;;;11.98;1.70;;;;;;;11.90;65.40;100062.00;4990620;28;20065;-45
2024/01/01 07:36:44;;;;;;;13.88;2.15;;;;;;;11.87;65.96;100071.63;4990270;28;20129;-43
2024/01/01 07:39:09;;;;;;;15.93;1.90;;;;;;;11.64;66.04;100082.13;4991229;28;20037;-43
2024/01/01 07:41:35;;;;;;;10.00;2.03;;;;;;;11.63;66.54;100106.50;4990978;28;20193;-43
2024/01/01 07:44:00;;;;;;;13.35;2.33;;;;;;;11.79;67.02;100096.00;4990726;28;20052;-43
2024/01/01 07:46:25;;;;;;;16.25;1.90;;;;;;;12.04;67.25;100095.91;4991122;28;20042;-43
2024/01/01 07:48:51;;;;;;;7.43;1.60;;;;;;;11.67;68.24;100096.03;4989415;28;20042;-44
2024/01/01 07:51:16;;;;;;;11.02;2.00;;;;;;;11.68;67.91;100095.16;4991279;28;20121;-43
2024/01/01 07:53:42;;;;;;;10.32;2.03;;;;;;;11.77;67.79;100095.13;4990021;28;20046;-44
2024/01/01 07:56:08;;;;;;;11.13;1.77;;;;;;;11.65;68.35;100107.34;4991099;28;20119;-44
2024/01/01 07:58:33;;;;;;;12.10;2.08;;;;;;;11.88;67.81;100115.16;4990896;28;20555;-44
2024/01/01 08:00:59;;;;;;;16.33;1.98;;;;;;;12.16;66.66;100107.16;4990285;28;20512;-44
2024/01/01 08:03:25;;;;;;;15.27;2.67;;;;;;;12.09;67.23;100112.41;4990478;28;20034;-46
2024/01/01 08:05:51;;;;;;;9.95;2.05;;;;;;;11.70;67.56;100129.97;4990058;28;20044;-43
2024/01/01 08:08:16;;;;;;;13.23;1.73;;;;;;;11.63;65.85;100132.59;4990564;28;20129;-45
2024/01/01 08:10:43;;;;;;;8.57;2.17;;;;;;;12.16;64.75;100121.97;4990189;28;20041;-46
2024/01/01 08:13:09;;;;;;;8.02;1.42;;;;;;;12.04;64.64;100132.47;4989944;28;20034;-48
2024/01/01 08:15:34;;;;;;;10.25;1.73;;;;;;;11.79;64.55;100134.31;4989884;28;20707;-48
2024/01/01 08:18:01;;;;;;;7.25;1.40;;;;;;;11.64;64.95;100143.06;4989525;28;20536;-48
2024/01/01 08:20:26;;;;;;;11.35;1.50;;;;;;;11.77;65.79;100149.16;4990207;28;20038;-47
2024/01/01 08:22:51;;;;;;;9.73;1.60;;;;;;;11.41;66.74;100170.91;4989915;28;20125;-45
2024/01/01 08:25:17;;;;;;;7.60;1.40;;;;;;;12.16;66.28;100162.03;4990029;28;20034;-45
2024/01/01 08:27:42;;;;;;;6.72;1.38;;;;;;;11.37;66.22;100156.13;4989851;28;20035;-47
2024/01/01 08:30:08;;;;;;;5.70;1.27;;;;;;;11.46;67.03;100161.38;4990542;28;20416;-44
2024/01/01 08:32:33;;;;;;;7.25;1.17;;;;;;;11.33;66.42;100168.34;4990478;28;20096;-43
2024/01/01 08:34:59;;;;;;;6.78;1.30;;;;;;;11.39;66.67;100165.72;4988223;28;20026;-44
2024/01/01 08:37:24;;;;;;;7.63;1.20;;;;;;;11.37;65.96;100172.66;4990079;28;20073;-45
2024/01/01 08:39:49;;;;;;;6.80;1.20;;;;;;;11.91;64.45;100169.97;4989411;28;20030;-47
2024/01/01 08:42:15;;;;;;;8.45;1.50;;;;;;;12.04;63.74;100198.66;4989970;28;20378;-44
2024/01/01 08:44:40;;;;;;;8.30;1.40;;;;;;;11.62;65.40;100181.34;4989002;28;20440;-46
2024/01/01 08:47:05;;;;;;;6.75;1.10;;;;;;;11.40;67.28;100193.53;4990111;28;20493;-50
2024/01/01 08:49:31;;;;;;;9.93;1.58;;;;;;;11.20;68.52;100200.50;4993605;28;20130;-44
2024/01/01 08:51:56;;;;;;;6.32;1.52;;;;;;;10.85;69.64;100213.53;4992830;28;20073;-45
2024/01/01 08:54:22;;;;;;;5.97;1.23;;;;;;;11.43;67.64;100212.69;4993003;28;20488;-45
2024/01/01 08:56:48;;;;;;;5.82;1.30;;;;;;;11.07;68.94;100214.41;4992716;28;20042;-44
2024/01/01 08:59:13;;;;;;;8.35;1.30;;;;;;;11.37;68.51;100210.94;4993606;28;20077;-45
2024/01/01 09:01:44;;;;;;;6.97;1.33;;;;;;;10.83;70.04;100224.81;4992862;28;20089;-44
2024/01/01 09:04:09;;;;;;;11.93;1.50;;;;;;;11.30;69.59;100219.63;4993247;28;20041;-46
2024/01/01 09:06:35;;;;;;;14.60;1.70;;;;;;;11.17;69.55;100223.09;4994700;28;20038;-43
2024/01/01 09:09:00;;;;;;;14.02;1.80;;;;;;;11.27;69.51;100230.09;4994632;28;20036;-44
2024/01/01 09:11:25;;;;;;;9.35;1.70;;;;;;;11.28;69.22;100232.69;4994517;28;20125;-44
2024/01/01 09:13:50;;;;;;;12.70;1.88;;;;;;;11.38;68.44;100229.22;4992592;28;20039;-45
2024/01/01 09:16:16;;;;;;;11.05;2.03;;;;;;;11.83;67.28;100231.81;4993848;28;20035;-45
2024/01/01 09:18:41;;;;;;;8.00;1.63;;;;;;;11.75;68.49;100232.69;4993063;28;20058;-47
2024/01/01 09:21:14;;;;;;;9.48;1.60;;;;;;;11.47;69.73;100235.28;4993414;28;20038;-47
2024/01/01 09:23:39;;;;;;;11.23;1.77;;;;;;;11.57;69.36;100240.53;4992206;28;20030;-44
2024/01/01 09:26:04;;;;;;;8.60;1.63;;;;;;;10.93;70.27;100240.47;4993047;28;20405;-45
2024/01/01 09:28:31;;;;;;;12.77;2.10;;;;;;;11.58;69.33;100250.09;4993167;28;20042;-44
2024/01/01 09:30:57;;;;;;;15.82;1.92;;;;;;;11.08;69.27;100244.00;4992537;28;20528;-43
2024/01/01 09:33:22;;;;;;;13.00;1.63;;;;;;;11.67;67.91;100243.97;4992490;28;20121;-47
2024/01/01 09:35:47;;;;;;;13.73;1.88;;;;;;;11.72;66.52;100244.84;4992124;28;20121;-45
2024/01/01 09:38:13;;;;;;;9.68;1.58;;;;;;;11.34;66.00;100256.16;4992669;28;20070;-45
2024/01/01 09:40:38;;;;;;;11.10;1.95;;;;;;;12.02;64.09;100254.38;4992162;28;20036;-43
2024/01/01 09:43:04;;;;;;;9.52;1.75;;;;;;;11.84;64.08;100270.97;4992222;28;20505;-47
2024/01/01 09:45:30;;;;;;;11.52;1.70;;;;;;;12.09;64.34;100271.78;4992217;28;20104;-44
2024/01/01 09:47:56;;;;;;;7.13;1.35;;;;;;;11.22;66.18;100312.72;4991867;28;20241;-47
2024/01/01 09:50:21;;;;;;;9.10;1.20;;;;;;;11.41;65.96;100296.19;4992286;28;20066;-44
2024/01/01 09:52:46;;;;;;;8.43;1.10;;;;;;;11.48;66.90;100295.31;4991852;28;20042;-47
2024/01/01 09:55:12;;;;;;;8.77;1.65;;;;;;;11.45;67.30;100294.47;4991796;28;20034;-44
2024/01/01 09:57:38;;;;;;;8.65;1.50;;;;;;;11.26;67.23;100297.06;4991767;28;20039;-42
2024/01/01 10:00:05;;;;;;;6.82;1.40;;;;;;;11.75;66.33;100294.50;4990874;28;20037;-45
2024/01/01 10:02:31;;;;;;;6.50;1.38;;;;;;;11.62;66.64;100304.03;4992110;28;20034;-47
2024/01/01 10:05:11;;;;;;;7.47;1.35;;;;;;;11.92;65.51;100312.75;4991323;28;20048;-42
2024/01/01 10:07:36;;;;;;;13.82;1.40;;;;;;;11.82;65.98;100317.13;4991991;28;20043;-43
2024/01/01 10:10:02;;;;;;;10.18;1.65;;;;;;;11.93;65.69;100320.59;4991619;28;20243;-47
2024/01/01 10:12:27;;;;;;;11.15;1.73;;;;;;;12.05;63.97;100320.59;4992136;28;20478;-47
2024/01/01 10:14:53;;;;;;;11.75;1.42;;;;;;;11.76;63.90;100323.25;4991262;28;20404;-44
2024/01/01 10:17:19;;;;;;;7.70;1.27;;;;;;;12.39;62.92;100329.22;4991618;28;20409;-44
2024/01/01 10:19:52;;;;;;;9.40;1.88;;;;;;;12.02;63.12;100327.53;4991206;28;20117;-45
2024/01/01 10:22:19;;;;;;;7.20;1.40;;;;;;;12.16;62.91;100338.84;4991823;28;20552;-46
2024/01/01 10:24:49;;;;;;;12.48;1.52;;;;;;;12.20;62.54;100340.59;4990937;28;20285;-44
2024/01/01 10:27:17;;;;;;;7.97;1.50;;;;;;;12.29;61.94;100339.72;4991749;28;20078;-45
2024/01/01 10:29:46;;;;;;;12.10;1.73;;;;;;;12.26;62.31;100343.19;4991007;28;20035;-44
2024/01/01 10:32:14;;;;;;;9.55;1.75;;;;;;;12.32;63.13;100352.78;4991788;28;20034;-46
2024/01/01 10:34:40;;;;;;;8.23;1.65;;;;;;;12.09;62.99;100335.38;4990754;28;20026;-44
2024/01/01 10:37:06;;;;;;;12.38;1.67;;;;;;;12.35;62.41;100347.53;4990096;28;20053;-46
2024/01/01 10:39:33;;;;;;;11.18;1.60;;;;;;;12.39;62.41;100338.78;4991434;28;20114;-46
2024/01/01 10:41:58;;;;;;;15.38;2.40;;;;;;;12.74;61.85;100331.72;4990969;28;20027;-44
2024/01/01 10:44:23;;;;;;;14.90;2.20;;;;;;;12.75;61.25;100333.44;4990659;28;20088;-45
2024/01/01 10:46:51;;;;;;;12.70;2.22;;;;;;;12.53;61.98;100332.66;4990600;28;20108;-46
2024/01/01 10:49:23;;;;;;;11.85;2.22;;;;;;;12.05;63.48;100330.16;4991263;28;20508;-45
2024/01/01 10:52:13;;;;;;;11.65;2.13;;;;;;;12.37;62.63;100337.97;4991141;28;20045;-44
2024/01/01 10:55:12;;;;;;;12.18;1.98;;;;;;;12.46;62.66;100336.16;4989567;28;20066;-44
2024/01/01 10:57:53;;;;;;;11.65;2.00;;;;;;;12.33;61.84;100344.91;4991552;28;20045;-44
2024/01/01 11:00:29;;;;;;;12.90;2.60;;;;;;;12.94;61.21;100339.47;4991772;28;20060;-44
2024/01/01 11:02:55;;;;;;;10.80;1.80;;;;;;;12.79;62.04;100348.28;4990971;28;20125;-44
2024/01/01 11:05:31;;;;;;;13.70;1.95;;;;;;;12.90;59.97;100350.84;4990819;28;20058;-45
2024/01/01 11:08:01;;;;;;;13.20;2.00;;;;;;;12.66;61.14;100359.66;4990538;28;20045;-44
2024/01/01 11:10:33;;;;;;;8.85;1.85;;;;;;;12.66;60.81;100354.41;4990197;28;20438;-45
2024/01/01 11:12:58;;;;;;;12.73;1.70;;;;;;;12.53;61.96;100364.03;4990131;28;20034;-44
2024/01/01 11:16:05;;;;;;;14.45;1.98;;;;;;;12.41;62.32;100366.69;4990584;28;20050;-47
2024/01/01 11:18:33;;;;;;;15.07;2.25;;;;;;;12.51;62.71;100376.25;4930176;29;20396;-46
2024/01/01 11:21:01;;;;;;;12.60;2.85;;;;;;;12.57;61.85;100367.50;4980765;28;20038;-46
2024/01/01 11:23:46;;;;;;;13.15;2.30;;;;;;;12.72;61.86;100371.84;4990351;28;20050;-46
2024/01/01 11:26:34;;;;;;;9.68;2.17;;;;;;;12.54;61.32;100380.59;4989805;28;20057;-44